Time;durP1;ratioP1;P1;durP2;ratioP2;P2;SDS_P1;SDS_P2;PMS_P1;PMS_P2;Temp;Humidity;BMP_temperature;BMP_pressure;BME280_temperature;BME280_humidity;BME280_pressure;Samples;Min_cycle;Max_cycle;Signal;HPM_P1;HPM_P2
2022/05/02 00:00:12;;;;;;;17.90;11.63;;;3.90;99.90;;;;;;5038374;28;20131;-78
2022/05/02 00:02:38;;;;;;;14.27;10.95;;;3.50;99.90;;;;;;5036583;28;21678;-78
2022/05/02 00:05:06;;;;;;;12.63;10.25;;;2.10;99.90;;;;;;5034392;28;20061;-86
2022/05/02 00:07:32;;;;;;;14.52;9.90;;;3.40;99.90;;;;;;5028546;28;20087;-86
2022/05/02 00:09:58;;;;;;;13.27;9.88;;;3.40;99.90;;;;;;5046873;28;20109;-87
2022/05/02 00:12:24;;;;;;;17.95;10.82;;;3.30;99.90;;;;;;5040022;28;20499;-87
2022/05/02 00:14:49;;;;;;;15.90;10.82;;;3.50;99.90;;;;;;5036470;28;20049;-87
2022/05/02 00:17:16;;;;;;;15.63;10.77;;;3.30;99.90;;;;;;5039449;28;20049;-87
2022/05/02 00:19:42;;;;;;;15.75;11.32;;;3.30;99.90;;;;;;5037825;28;20048;-86
2022/05/02 00:22:07;;;;;;;15.48;10.73;;;3.30;99.90;;;;;;5023109;28;20123;-87
2022/05/02 00:24:33;;;;;;;15.75;10.57;;;3.30;99.90;;;;;;5046419;28;20115;-87
2022/05/02 00:26:59;;;;;;;16.33;10.30;;;3.30;99.90;;;;;;5026214;28;20032;-86
2022/05/02 00:29:25;;;;;;;14.73;10.90;;;3.20;99.90;;;;;;5012840;28;20143;-86
2022/05/02 00:31:51;;;;;;;16.33;11.00;;;3.50;99.90;;;;;;5046379;28;20178;-87
2022/05/02 00:34:17;;;;;;;14.40;10.60;;;3.90;99.90;;;;;;5044193;28;20487;-87
2022/05/02 00:36:43;;;;;;;14.23;10.40;;;3.60;99.90;;;;;;5046384;28;20071;-87
2022/05/02 00:39:09;;;;;;;16.83;11.30;;;3.10;99.90;;;;;;5023207;28;20072;-78
2022/05/02 00:41:38;;;;;;;15.20;10.77;;;4.40;99.90;;;;;;5002911;28;20376;-78
2022/05/02 00:44:04;;;;;;;13.80;10.90;;;2.70;99.90;;;;;;5037538;28;20067;-78
2022/05/02 00:46:29;;;;;;;16.15;11.48;;;3.10;99.90;;;;;;5002883;28;20036;-78
2022/05/02 00:48:55;;;;;;;16.20;10.95;;;3.00;99.90;;;;;;5020552;28;20056;-78
2022/05/02 00:51:21;;;;;;;13.52;10.65;;;3.00;99.90;;;;;;5035637;28;20060;-78
2022/05/02 00:53:51;;;;;;;13.23;9.90;;;3.00;99.90;;;;;;5038892;28;20056;-78
2022/05/02 00:56:17;;;;;;;15.05;10.70;;;3.00;99.90;;;;;;5041430;28;20185;-83
2022/05/02 00:58:44;;;;;;;13.23;10.00;;;3.00;99.90;;;;;;5042553;28;20045;-83
2022/05/02 01:01:09;;;;;;;13.93;10.48;;;2.90;99.90;;;;;;5026498;28;20045;-83
2022/05/02 01:03:35;;;;;;;14.40;10.43;;;2.90;99.90;;;;;;5021221;28;20037;-83
2022/05/02 01:08:47;;;;;;;15.18;10.93;;;2.90;99.90;;;;;;5037179;28;20044;-83
2022/05/02 01:11:13;;;;;;;12.55;9.95;;;3.20;99.90;;;;;;5037850;28;20114;-83
2022/05/02 01:13:43;;;;;;;15.20;10.63;;;2.90;99.90;;;;;;5032712;28;20060;-77
2022/05/02 01:16:22;;;;;;;13.70;10.07;;;2.90;99.90;;;;;;5037214;28;20041;-77
2022/05/02 01:18:49;;;;;;;13.75;10.65;;;2.80;99.90;;;;;;5021759;28;20052;-77
2022/05/02 01:21:17;;;;;;;17.55;11.38;;;2.60;99.90;;;;;;5041162;28;20055;-77
2022/05/02 01:23:44;;;;;;;16.30;11.13;;;3.40;99.90;;;;;;5039073;28;20033;-77
2022/05/02 01:26:11;;;;;;;16.88;12.32;;;2.90;99.90;;;;;;5037349;28;20060;-77
2022/05/02 01:28:41;;;;;;;16.98;11.82;;;2.90;99.90;;;;;;5038600;28;20084;-77
2022/05/02 01:31:07;;;;;;;15.43;10.57;;;2.90;99.90;;;;;;5038101;28;20060;-77
2022/05/02 01:33:35;;;;;;;17.50;10.83;;;2.80;99.90;;;;;;5024491;28;20037;-77
2022/05/02 01:36:01;;;;;;;18.38;12.15;;;3.30;99.90;;;;;;5024566;28;20094;-77
2022/05/02 01:38:26;;;;;;;15.80;11.18;;;2.80;99.90;;;;;;5025072;28;20941;-77
2022/05/02 01:40:52;;;;;;;15.63;11.87;;;2.70;99.90;;;;;;5040115;28;20048;-77
2022/05/02 01:43:17;;;;;;;17.30;12.02;;;2.80;99.90;;;;;;5024950;28;20037;-77
2022/05/02 01:45:43;;;;;;;15.80;11.70;;;2.80;99.90;;;;;;5025466;28;20410;-83
2022/05/02 01:48:09;;;;;;;16.03;11.57;;;2.70;99.90;;;;;;5046915;28;20066;-83
2022/05/02 01:50:35;;;;;;;15.77;10.45;;;2.70;99.90;;;;;;5046822;28;20087;-83
2022/05/02 01:53:00;;;;;;;13.05;10.85;;;2.60;99.90;;;;;;5045599;28;20485;-82
2022/05/02 01:55:26;;;;;;;17.67;12.02;;;;;;;;;;5046910;28;20475;-82
2022/05/02 01:57:52;;;;;;;17.80;11.63;;;2.60;99.90;;;;;;5045250;28;20552;-83
2022/05/02 02:00:19;;;;;;;15.90;10.93;;;3.30;99.90;;;;;;5012463;28;20047;-82
2022/05/02 02:02:44;;;;;;;14.85;11.48;;;2.50;99.90;;;;;;5042438;28;20041;-78
2022/05/02 02:07:55;;;;;;;16.87;12.20;;;2.40;99.90;;;;;;5026479;28;20037;-78
2022/05/02 02:10:20;;;;;;;16.30;11.55;;;2.50;99.90;;;;;;5038727;28;20033;-78
2022/05/02 02:12:46;;;;;;;15.30;11.25;;;3.20;99.90;;;;;;5038425;28;20076;-78
2022/05/02 02:15:14;;;;;;;14.57;11.63;;;;;;;;;;5041306;28;20049;-78
2022/05/02 02:17:43;;;;;;;17.67;12.10;;;2.40;99.90;;;;;;5023166;28;20056;-79
2022/05/02 02:20:10;;;;;;;16.10;11.65;;;2.80;99.90;;;;;;5029657;28;20052;-86
2022/05/02 02:22:37;;;;;;;16.63;11.85;;;2.40;99.90;;;;;;5049311;28;20056;-87
2022/05/02 02:25:04;;;;;;;16.45;11.98;;;2.30;99.90;;;;;;5048833;28;20046;-87
2022/05/02 02:27:31;;;;;;;14.90;11.43;;;;;;;;;;5048890;28;20043;-87
2022/05/02 02:29:57;;;;;;;17.20;12.00;;;2.30;99.90;;;;;;5046325;28;20477;-87
2022/05/02 02:32:23;;;;;;;14.00;11.13;;;2.80;99.90;;;;;;5029903;28;20483;-86
2022/05/02 02:34:49;;;;;;;15.52;11.35;;;2.20;99.90;;;;;;5030694;28;20099;-86
2022/05/02 02:37:16;;;;;;;14.67;11.30;;;2.20;99.90;;;;;;5021460;28;20048;-78
2022/05/02 02:39:45;;;;;;;16.90;11.33;;;2.20;99.90;;;;;;5036930;28;20045;-78
2022/05/02 02:42:11;;;;;;;12.43;9.80;;;2.20;99.90;;;;;;5039533;28;20364;-78
2022/05/02 02:44:37;;;;;;;13.83;10.70;;;2.10;99.90;;;;;;5044000;28;20072;-78
2022/05/02 02:47:03;;;;;;;14.57;11.20;;;2.10;99.90;;;;;;5038517;28;20044;-78
2022/05/02 02:49:29;;;;;;;14.97;10.93;;;2.10;99.90;;;;;;5019695;28;20162;-78
2022/05/02 02:51:56;;;;;;;14.90;11.07;;;1.90;99.90;;;;;;5037232;28;20049;-82
2022/05/02 02:54:22;;;;;;;16.83;11.23;;;2.20;99.90;;;;;;5013146;28;20041;-83
2022/05/02 02:56:48;;;;;;;17.30;12.15;;;2.00;99.90;;;;;;5045495;28;20505;-83
2022/05/02 02:59:14;;;;;;;16.77;12.13;;;2.00;99.90;;;;;;5048900;28;20156;-83
2022/05/02 03:01:40;;;;;;;18.92;11.60;;;2.00;99.90;;;;;;5029204;28;20033;-83
2022/05/02 03:06:52;;;;;;;25.50;12.60;;;1.90;99.90;;;;;;5030352;28;20038;-83
2022/05/02 03:09:18;;;;;;;16.93;12.07;;;1.90;99.90;;;;;;5042185;28;20037;-77
2022/05/02 03:11:44;;;;;;;19.03;12.23;;;2.10;99.90;;;;;;5011278;28;20390;-77
2022/05/02 03:14:10;;;;;;;17.70;12.73;;;1.80;99.90;;;;;;5039466;28;20041;-77
2022/05/02 03:16:36;;;;;;;19.67;13.50;;;1.80;99.90;;;;;;5037483;28;20104;-77
2022/05/02 03:19:02;;;;;;;18.07;12.77;;;1.90;99.90;;;;;;5038529;28;20049;-77
2022/05/02 03:21:28;;;;;;;17.93;12.07;;;1.80;99.90;;;;;;5038015;28;20098;-77
2022/05/02 03:23:54;;;;;;;22.50;13.10;;;1.80;99.90;;;;;;5037202;28;20045;-77
2022/05/02 03:26:19;;;;;;;15.47;11.50;;;1.80;99.90;;;;;;5043204;28;20549;-83
2022/05/02 03:28:45;;;;;;;17.50;12.27;;;1.70;99.90;;;;;;5028248;28;20048;-83
2022/05/02 03:31:11;;;;;;;23.23;14.73;;;1.70;99.90;;;;;;5025706;28;20029;-83
2022/05/02 03:33:36;;;;;;;17.57;12.80;;;1.70;99.90;;;;;;5042512;28;20040;-83
2022/05/02 03:36:03;;;;;;;18.63;12.80;;;;;;;;;;5019404;28;20037;-83
2022/05/02 03:38:28;;;;;;;19.03;13.17;;;1.70;99.90;;;;;;5041204;28;20040;-83
2022/05/02 03:40:54;;;;;;;17.53;12.00;;;1.60;99.90;;;;;;5020072;28;20033;-83
2022/05/02 03:43:21;;;;;;;18.87;12.83;;;1.70;99.90;;;;;;5020837;28;20041;-87
2022/05/02 03:45:46;;;;;;;18.00;12.45;;;1.60;99.90;;;;;;5041357;28;20526;-87
2022/05/02 03:48:12;;;;;;;19.57;13.20;;;1.60;99.90;;;;;;5019981;28;20040;-86
2022/05/02 03:50:38;;;;;;;18.53;13.57;;;1.70;99.90;;;;;;5036350;28;20467;-86
2022/05/02 03:53:08;;;;;;;19.60;13.67;;;1.60;99.90;;;;;;5040375;28;20403;-87
2022/05/02 03:55:34;;;;;;;21.07;13.87;;;1.60;99.90;;;;;;5044459;28;20052;-87
2022/05/02 03:58:02;;;;;;;23.90;14.03;;;1.60;99.90;;;;;;5052840;28;20047;-87
2022/05/02 04:00:28;;;;;;;21.73;14.43;;;1.60;99.90;;;;;;5050164;28;20457;-77
2022/05/02 04:02:53;;;;;;;18.70;13.37;;;1.60;99.90;;;;;;5052674;28;20045;-77
2022/05/02 04:05:19;;;;;;;16.70;12.43;;;1.50;99.90;;;;;;5052143;28;20099;-77
2022/05/02 04:07:45;;;;;;;22.07;13.63;;;1.60;99.90;;;;;;5019405;28;20041;-77
2022/05/02 04:10:11;;;;;;;18.90;13.33;;;1.50;99.90;;;;;;5030815;28;20051;-77
2022/05/02 04:12:39;;;;;;;21.07;13.87;;;1.50;99.90;;;;;;5036363;28;20041;-77
2022/05/02 04:15:06;;;;;;;21.25;14.13;;;-0.30;99.90;;;;;;5036698;28;20052;-78
2022/05/02 04:17:33;;;;;;;20.13;14.30;;;1.50;99.90;;;;;;5020484;28;20072;-78
2022/05/02 04:19:58;;;;;;;20.17;14.00;;;1.50;99.90;;;;;;5018104;28;20049;-78
2022/05/02 04:22:24;;;;;;;22.40;14.90;;;1.50;99.90;;;;;;5036860;28;20055;-78
2022/05/02 04:24:50;;;;;;;19.37;13.40;;;3.00;99.90;;;;;;5034601;28;20041;-78
2022/05/02 04:27:15;;;;;;;18.73;13.73;;;1.60;99.90;;;;;;5018991;28;20033;-78
2022/05/02 04:29:41;;;;;;;23.40;13.83;;;1.70;99.90;;;;;;5020767;28;21040;-78
2022/05/02 04:32:07;;;;;;;21.50;14.77;;;1.70;99.90;;;;;;5034794;28;20045;-83
2022/05/02 04:34:32;;;;;;;21.03;15.23;;;3.20;99.90;;;;;;5037863;28;20519;-82
2022/05/02 04:36:58;;;;;;;23.67;15.20;;;1.80;99.90;;;;;;5002270;28;20049;-83
2022/05/02 04:39:24;;;;;;;21.83;15.35;;;1.90;99.90;;;;;;5034542;28;20432;-83
2022/05/02 04:41:49;;;;;;;22.77;15.87;;;1.90;99.90;;;;;;5004250;28;20045;-83
2022/05/02 04:44:15;;;;;;;20.85;15.10;;;2.10;99.90;;;;;;5034790;28;20072;-83
2022/05/02 04:46:41;;;;;;;21.63;14.53;;;2.20;99.90;;;;;;5034641;28;20712;-83
2022/05/02 04:49:07;;;;;;;21.67;15.05;;;2.20;99.90;;;;;;5036228;28;20471;-78
2022/05/02 04:51:32;;;;;;;21.40;15.75;;;2.40;99.90;;;;;;5018869;28;20589;-78
2022/05/02 04:53:58;;;;;;;34.35;15.63;;;2.60;99.90;;;;;;5016871;28;20048;-79
2022/05/02 04:56:24;;;;;;;18.48;14.32;;;2.80;99.90;;;;;;5035474;28;20044;-79
2022/05/02 04:58:50;;;;;;;20.90;15.73;;;2.80;99.90;;;;;;5034037;28;20699;-79
2022/05/02 05:01:17;;;;;;;19.92;13.85;;;3.10;99.90;;;;;;5039515;28;20067;-79
2022/05/02 05:03:42;;;;;;;21.35;14.85;;;3.20;99.90;;;;;;5038729;28;20116;-78
2022/05/02 05:06:08;;;;;;;21.90;14.73;;;3.40;99.90;;;;;;5034171;28;20056;-86
2022/05/02 05:08:34;;;;;;;19.73;14.25;;;3.50;99.90;;;;;;5020726;28;20040;-87
2022/05/02 05:11:26;;;;;;;21.23;16.00;;;3.90;99.90;;;;;;5018431;28;20402;-87
2022/05/02 05:17:04;;;;;;;22.80;15.35;;;4.80;99.90;;;;;;5036372;28;20049;-87
2022/05/02 05:20:02;;;;;;;19.38;14.82;;;4.90;99.90;;;;;;5034979;28;20407;-87
2022/05/02 05:22:50;;;;;;;19.48;14.52;;;5.10;99.90;;;;;;5048994;28;20103;-79
2022/05/02 05:25:43;;;;;;;16.17;13.23;;;5.20;99.90;;;;;;5033541;28;20037;-79
2022/05/02 05:28:37;;;;;;;17.20;13.57;;;5.50;99.90;;;;;;5033990;28;20037;-79
2022/05/02 05:31:18;;;;;;;19.00;13.35;;;5.60;99.90;;;;;;5049428;28;20049;-79
2022/05/02 05:33:51;;;;;;;18.35;13.88;;;5.70;99.90;;;;;;5034933;28;20503;-79
2022/05/02 05:36:39;;;;;;;20.50;13.57;;;5.90;99.90;;;;;;5021783;28;20049;-79
2022/05/02 05:39:07;;;;;;;17.08;13.02;;;6.30;99.90;;;;;;5034756;28;20052;-78
2022/05/02 05:41:45;;;;;;;16.00;12.55;;;6.30;99.90;;;;;;5020040;28;20052;-78
2022/05/02 05:44:33;;;;;;;15.05;12.18;;;6.50;99.90;;;;;;5035436;28;20359;-78
2022/05/02 05:47:20;;;;;;;15.80;11.80;;;7.00;99.90;;;;;;5035147;28;20124;-78
2022/05/02 05:50:03;;;;;;;15.85;11.20;;;8.50;99.90;;;;;;5035650;28;20072;-78
2022/05/02 05:52:40;;;;;;;16.50;12.00;;;7.20;99.90;;;;;;5052526;28;20056;-78
2022/05/02 05:55:11;;;;;;;17.45;11.48;;;7.40;99.90;;;;;;5037496;28;20041;-86
2022/05/02 05:57:59;;;;;;;15.15;9.60;;;8.10;99.90;;;;;;5022312;28;20398;-86
2022/05/02 06:00:29;;;;;;;14.43;10.10;;;8.40;99.90;;;;;;5039361;28;20056;-86
2022/05/02 06:03:20;;;;;;;13.15;10.50;;;9.50;99.90;;;;;;5019980;28;20053;-86
2022/05/02 06:05:47;;;;;;;13.60;9.68;;;9.80;99.90;;;;;;5040290;28;20139;-87
2022/05/02 06:08:19;;;;;;;12.30;9.05;;;10.30;99.90;;;;;;5030470;28;20185;-88
2022/05/02 06:10:46;;;;;;;11.57;8.77;;;10.80;99.90;;;;;;5038073;28;20055;-87
2022/05/02 06:13:16;;;;;;;12.45;8.63;;;11.40;99.90;;;;;;5021300;28;20051;-80
2022/05/02 06:18:45;;;;;;;9.07;7.10;;;12.10;99.90;;;;;;4982547;28;20065;-80
2022/05/02 06:21:15;;;;;;;8.75;7.18;;;12.60;99.90;;;;;;5037967;28;21895;-80
2022/05/02 06:23:45;;;;;;;7.30;6.50;;;13.00;99.90;;;;;;5018361;28;20049;-80
2022/05/02 06:26:11;;;;;;;9.85;7.28;;;13.40;99.90;;;;;;5036235;28;20114;-80
2022/05/02 06:28:44;;;;;;;10.10;7.30;;;13.90;99.90;;;;;;5037312;28;20673;-87
2022/05/02 06:31:17;;;;;;;9.77;6.15;;;14.30;99.90;;;;;;5048237;28;20029;-90
2022/05/02 06:33:48;;;;;;;8.80;6.70;;;14.60;99.90;;;;;;5067737;28;20036;-84
2022/05/02 06:36:33;;;;;;;8.90;6.18;;;15.00;99.90;;;;;;5045674;28;20490;-84
2022/05/02 06:38:58;;;;;;;8.05;6.00;;;15.40;99.90;;;;;;5026248;28;20047;-85
2022/05/02 06:42:02;;;;;;;8.63;5.90;;;15.60;99.90;;;;;;5045735;28;20041;-85
2022/05/02 06:44:50;;;;;;;9.40;6.35;;;16.00;99.90;;;;;;5045681;28;20055;-84
2022/05/02 06:47:41;;;;;;;7.82;5.93;;;16.30;99.90;;;;;;5046690;28;20037;-87
2022/05/02 06:50:07;;;;;;;8.05;5.85;;;16.60;99.90;;;;;;5031427;28;20052;-87
2022/05/02 06:52:57;;;;;;;7.07;5.32;;;16.80;99.40;;;;;;5045181;28;20049;-88
2022/05/02 06:55:34;;;;;;;7.15;5.03;;;17.30;99.90;;;;;;5047921;28;20040;-87
2022/05/02 06:58:35;;;;;;;6.82;5.35;;;17.20;98.10;;;;;;5049027;28;20041;-87
2022/05/02 07:01:13;;;;;;;7.10;5.22;;;17.40;95.00;;;;;;5047396;28;20044;-87
2022/05/02 07:04:00;;;;;;;8.07;4.63;;;17.40;94.60;;;;;;5051209;28;20059;-80
2022/05/02 07:06:25;;;;;;;7.90;5.18;;;17.20;95.20;;;;;;5032300;28;20041;-80
2022/05/02 07:09:00;;;;;;;6.53;4.78;;;18.00;95.30;;;;;;5051330;28;20037;-80
2022/05/02 07:12:06;;;;;;;6.05;4.72;;;18.40;95.10;;;;;;5052524;28;20037;-81
2022/05/02 07:15:04;;;;;;;6.97;4.50;;;18.90;92.70;;;;;;5012405;28;20049;-81
2022/05/02 07:17:42;;;;;;;6.65;5.03;;;19.10;87.00;;;;;;5036186;28;20055;-80
2022/05/02 07:20:27;;;;;;;7.65;4.88;;;19.00;87.10;;;;;;5054097;28;20041;-85
2022/05/02 07:23:17;;;;;;;8.48;4.75;;;19.40;89.10;;;;;;5051341;28;20087;-85
2022/05/02 07:25:47;;;;;;;7.10;5.28;;;19.70;87.80;;;;;;5049302;28;20037;-85
2022/05/02 07:28:40;;;;;;;7.68;5.00;;;20.20;86.90;;;;;;5036758;28;20048;-85
2022/05/02 07:31:08;;;;;;;7.85;4.93;;;20.60;77.60;;;;;;5019541;28;20044;-85
2022/05/02 07:33:39;;;;;;;6.32;4.82;;;20.70;81.30;;;;;;5028866;28;20047;-84
2022/05/02 07:36:06;;;;;;;9.05;5.20;;;21.20;80.10;;;;;;5047857;28;20041;-80
2022/05/02 07:38:33;;;;;;;10.13;5.45;;;21.40;78.10;;;;;;5032148;28;20047;-81
2022/05/02 07:43:49;;;;;;;12.32;5.57;;;21.30;75.90;;;;;;5052323;28;20041;-81
2022/05/02 07:46:20;;;;;;;7.40;4.95;;;21.90;76.30;;;;;;5049935;28;20106;-81
2022/05/02 07:48:49;;;;;;;6.68;5.07;;;22.50;74.90;;;;;;5052104;28;20057;-81
2022/05/02 07:51:15;;;;;;;7.93;5.50;;;22.50;73.00;;;;;;5049803;28;20048;-81
2022/05/02 07:53:46;;;;;;;6.95;4.93;;;22.70;72.10;;;;;;5043076;28;20037;-81
2022/05/02 07:56:14;;;;;;;8.45;5.20;;;23.10;73.20;;;;;;5042395;28;20120;-82
2022/05/02 07:58:41;;;;;;;6.75;4.65;;;23.40;70.60;;;;;;5046323;28;20045;-82
2022/05/02 08:01:08;;;;;;;9.30;5.47;;;23.40;70.60;;;;;;5052992;28;20083;-82
2022/05/02 08:03:34;;;;;;;8.77;5.55;;;23.10;67.60;;;;;;5036593;28;20040;-81
2022/05/02 08:06:37;;;;;;;7.65;5.28;;;22.70;66.80;;;;;;5051752;28;20033;-81
2022/05/02 08:09:12;;;;;;;8.95;5.20;;;23.60;65.40;;;;;;5049817;28;20048;-88
2022/05/02 08:11:38;;;;;;;8.73;5.15;;;23.50;63.10;;;;;;5052633;28;20119;-88
2022/05/02 08:14:16;;;;;;;15.85;5.40;;;22.60;66.50;;;;;;5026394;28;20077;-88
2022/05/02 08:16:54;;;;;;;14.45;5.80;;;23.70;66.70;;;;;;5033867;28;20048;-88
2022/05/02 08:19:38;;;;;;;8.55;5.95;;;24.60;63.80;;;;;;5046907;28;20120;-89
2022/05/02 08:28:07;;;;;;;7.95;5.05;;;25.70;58.90;;;;;;5047909;28;20037;-81
2022/05/02 08:30:51;;;;;;;5.63;4.88;;;25.70;59.60;;;;;;5048769;28;20167;-81
2022/05/02 08:33:25;;;;;;;7.20;4.82;;;25.40;56.40;;;;;;5023123;28;20102;-81
2022/05/02 08:36:01;;;;;;;6.18;5.00;;;25.40;61.00;;;;;;5052315;28;20471;-82
2022/05/02 08:38:52;;;;;;;6.45;4.93;;;25.50;58.50;;;;;;5023624;28;20038;-81
2022/05/02 08:41:30;;;;;;;9.77;5.28;;;24.90;57.80;;;;;;5043652;28;20415;-82
2022/05/02 08:44:26;;;;;;;8.77;5.20;;;25.40;57.00;;;;;;5052265;28;20041;-82
2022/05/02 08:47:07;;;;;;;6.75;4.78;;;25.30;57.10;;;;;;5051336;28;20034;-81
2022/05/02 08:49:42;;;;;;;8.15;5.13;;;25.70;59.00;;;;;;5048621;28;20114;-82
2022/05/02 08:52:35;;;;;;;7.50;5.72;;;26.20;58.70;;;;;;5047724;28;20045;-81
2022/05/02 08:55:25;;;;;;;6.82;5.25;;;26.30;54.10;;;;;;5041025;28;21297;-82
2022/05/02 08:58:12;;;;;;;6.40;5.00;;;26.40;57.30;;;;;;5040582;28;20381;-82
2022/05/02 09:00:49;;;;;;;7.38;5.00;;;28.00;55.80;;;;;;5044894;28;20044;-81
2022/05/02 09:03:43;;;;;;;7.93;5.45;;;27.70;53.60;;;;;;5059476;22;21092;-86
2022/05/02 09:06:18;;;;;;;7.43;5.25;;;27.40;52.80;;;;;;5083425;28;20071;-86
2022/05/02 09:09:15;;;;;;;6.45;5.10;;;26.80;54.90;;;;;;5086933;28;20036;-86
2022/05/02 09:11:59;;;;;;;6.72;4.97;;;28.10;53.80;;;;;;5082180;28;20064;-86
2022/05/02 09:14:50;;;;;;;7.57;5.00;;;28.90;52.70;;;;;;5066485;28;20046;-86
2022/05/02 09:17:32;;;;;;;6.13;4.95;;;29.10;53.70;;;;;;5090637;28;20054;-80
2022/05/02 09:20:23;;;;;;;6.35;5.20;;;29.00;51.90;;;;;;5089524;28;20178;-80
2022/05/02 09:23:25;;;;;;;7.68;5.75;;;28.80;50.30;;;;;;5070590;28;20074;-80
2022/05/02 09:26:06;;;;;;;7.22;5.38;;;28.10;50.10;;;;;;5076061;28;20356;-80
2022/05/02 09:28:54;;;;;;;8.70;4.80;;;28.40;52.50;;;;;;5065228;28;20046;-80
2022/05/02 09:31:43;;;;;;;7.15;5.28;;;29.00;51.10;;;;;;5088838;28;20490;-80
2022/05/02 09:34:36;;;;;;;6.50;5.38;;;29.40;51.50;;;;;;5064646;28;20063;-80
2022/05/02 09:37:05;;;;;;;7.10;5.25;;;29.00;50.60;;;;;;5083941;28;20036;-80
2022/05/02 09:39:52;;;;;;;6.20;4.90;;;28.50;50.20;;;;;;5081247;28;20100;-80
2022/05/02 09:42:20;;;;;;;8.27;5.53;;;29.70;48.80;;;;;;5062608;28;20074;-80
2022/05/02 09:51:20;;;;;;;6.32;5.18;;;29.60;48.90;;;;;;5086076;28;20032;-87
2022/05/02 09:54:07;;;;;;;8.65;5.18;;;26.50;46.80;;;;;;5072548;28;20087;-87
2022/05/02 09:56:46;;;;;;;6.38;4.40;;;26.40;47.50;;;;;;5088505;28;20478;-86
2022/05/02 09:59:22;;;;;;;8.30;4.50;;;26.50;50.80;;;;;;5069863;28;20530;-88
2022/05/02 10:01:51;;;;;;;6.78;4.68;;;27.20;51.00;;;;;;5090487;28;20377;-86
2022/05/02 10:04:44;;;;;;;6.13;4.95;;;28.20;50.30;;;;;;5077759;28;20040;-87
2022/05/02 10:07:10;;;;;;;6.47;5.72;;;28.20;48.00;;;;;;5094769;28;20051;-80
2022/05/02 10:10:00;;;;;;;7.50;4.90;;;27.30;46.60;;;;;;5094208;28;20051;-81
2022/05/02 10:12:58;;;;;;;6.53;4.78;;;27.10;48.20;;;;;;5090057;28;20078;-82
2022/05/02 10:15:46;;;;;;;6.90;4.50;;;28.30;48.40;;;;;;5077786;28;20044;-81
2022/05/02 10:18:25;;;;;;;7.68;5.18;;;27.70;48.40;;;;;;5087919;28;20043;-81
2022/05/02 10:21:09;;;;;;;7.40;4.88;;;28.10;50.40;;;;;;5090509;28;20048;-81
2022/05/02 10:23:50;;;;;;;6.22;4.45;;;28.90;47.40;;;;;;5092221;28;20502;-87
2022/05/02 10:26:31;;;;;;;7.03;4.93;;;29.60;48.80;;;;;;5073557;28;20040;-87
2022/05/02 10:29:36;;;;;;;8.95;4.45;;;30.10;47.70;;;;;;5071495;28;20036;-87
2022/05/02 10:32:10;;;;;;;6.97;4.97;;;29.60;45.80;;;;;;5084601;28;20076;-87
2022/05/02 10:34:37;;;;;;;6.50;5.40;;;30.30;44.70;;;;;;5089441;28;20051;-87
2022/05/02 10:37:07;;;;;;;6.18;5.13;;;30.90;46.60;;;;;;5087955;28;20051;-87
2022/05/02 10:39:40;;;;;;;6.55;4.82;;;31.00;47.00;;;;;;5084383;28;20504;-81
2022/05/02 10:42:07;;;;;;;5.65;4.35;;;31.40;46.70;;;;;;5056725;28;20039;-82
2022/05/02 10:45:01;;;;;;;6.60;4.68;;;31.50;46.60;;;;;;5047691;28;20040;-81
2022/05/02 10:47:41;;;;;;;6.00;4.80;;;26.60;44.30;;;;;;5063465;28;20036;-81
2022/05/02 10:50:31;;;;;;;6.05;4.70;;;26.70;45.50;;;;;;5072082;28;20036;-81
2022/05/02 10:53:12;;;;;;;7.50;3.80;;;27.90;45.80;;;;;;5078938;28;20349;-81
2022/05/02 10:55:45;;;;;;;5.07;4.10;;;28.60;49.10;;;;;;5060390;28;20048;-86
2022/05/02 10:58:12;;;;;;;6.93;4.32;;;29.30;47.40;;;;;;5080979;28;20044;-86
2022/05/02 11:01:02;;;;;;;5.45;3.67;;;29.90;46.10;;;;;;5078792;28;20115;-87
2022/05/02 11:04:28;;;;;;;4.97;3.80;;;29.80;45.20;;;;;;5075747;28;20040;-87
2022/05/02 11:07:35;;;;;;;5.35;3.95;;;29.00;44.70;;;;;;5015725;28;20504;-87
2022/05/02 11:10:00;;;;;;;6.30;3.90;;;30.20;45.80;;;;;;4984824;28;20037;-87
2022/05/02 11:12:35;;;;;;;5.88;4.20;;;30.60;45.40;;;;;;5057886;28;20045;-87
2022/05/02 11:15:07;;;;;;;5.57;4.22;;;27.70;43.60;;;;;;5084614;28;20043;-86
2022/05/02 11:20:41;;;;;;;6.55;4.40;;;28.10;46.90;;;;;;5064994;28;20044;-86
2022/05/02 11:21:09;;;;;;;5.55;3.90;;;;;;;;;;5080656;28;20050;-86
2022/05/02 11:24:01;;;;;;;4.95;3.88;;;28.20;46.00;;;;;;5064816;28;20024;-87
2022/05/02 11:26:37;;;;;;;6.55;4.15;;;29.00;46.40;;;;;;5082712;28;20044;-86
2022/05/02 11:29:28;;;;;;;5.78;4.40;;;30.00;45.80;;;;;;5064364;28;20444;-81
2022/05/02 11:31:57;;;;;;;5.50;3.70;;;30.10;44.40;;;;;;5081313;28;21996;-81
2022/05/02 11:34:32;;;;;;;6.43;3.95;;;28.90;43.70;;;;;;5079266;28;20040;-81
2022/05/02 11:36:58;;;;;;;6.45;3.72;;;28.50;44.80;;;;;;5078725;28;20064;-81
2022/05/02 11:39:59;;;;;;;5.32;3.58;;;29.00;44.80;;;;;;5095832;28;20074;-81
2022/05/02 11:42:28;;;;;;;4.18;2.55;;;29.70;44.80;;;;;;5050051;28;20044;-81
2022/05/02 11:45:11;;;;;;;3.42;2.58;;;30.00;42.60;;;;;;5078154;28;20044;-81
2022/05/02 11:47:40;;;;;;;4.95;2.90;;;30.40;42.30;;;;;;5080267;28;20044;-81
2022/05/02 11:50:10;;;;;;;5.22;3.40;;;30.40;41.90;;;;;;5079148;28;20036;-81
2022/05/02 11:52:38;;;;;;;4.38;3.30;;;30.20;41.40;;;;;;5077921;28;20046;-81
2022/05/02 11:55:09;;;;;;;5.70;3.45;;;27.90;41.80;;;;;;5041988;28;20050;-81
2022/05/02 11:57:48;;;;;;;5.07;3.08;;;27.40;43.00;;;;;;5055026;28;20050;-81
2022/05/02 12:00:17;;;;;;;6.43;3.90;;;28.30;42.60;;;;;;5055333;28;20044;-80
2022/05/02 12:02:48;;;;;;;5.60;3.72;;;29.20;43.20;;;;;;5079949;28;20041;-86
2022/05/02 12:05:41;;;;;;;6.57;3.83;;;27.30;41.70;;;;;;5066076;28;20056;-81
2022/05/02 12:08:09;;;;;;;7.07;3.53;;;;;;;;;;5093881;28;20070;-81
2022/05/02 12:10:40;;;;;;;5.50;3.95;;;27.20;42.90;;;;;;5057523;28;20040;-81
2022/05/02 12:13:11;;;;;;;5.50;3.42;;;27.20;43.60;;;;;;5070865;28;20071;-81
2022/05/02 12:16:16;;;;;;;5.57;3.63;;;27.90;44.70;;;;;;5072204;28;20054;-81
2022/05/02 12:18:45;;;;;;;4.97;2.70;;;26.80;42.20;;;;;;4988354;28;20120;-86
2022/05/02 12:21:31;;;;;;;6.60;3.80;;;27.10;43.10;;;;;;5064519;28;20537;-86
2022/05/02 12:23:58;;;;;;;8.27;3.85;;;27.50;44.60;;;;;;5058249;28;20098;-86
2022/05/02 12:26:26;;;;;;;5.40;3.80;;;25.90;43.10;;;;;;5056889;28;20082;-87
2022/05/02 12:28:55;;;;;;;5.45;4.03;;;26.10;45.30;;;;;;5059471;28;20028;-86
2022/05/02 12:31:34;;;;;;;6.18;4.78;;;26.10;46.90;;;;;;5054728;28;20043;-86
2022/05/02 12:34:11;;;;;;;4.90;4.05;;;25.40;47.60;;;;;;5077105;28;21668;-87
2022/05/02 12:36:43;;;;;;;6.55;4.68;;;25.40;47.70;;;;;;5079550;28;20666;-86
2022/05/02 12:39:26;;;;;;;7.00;4.60;;;25.50;48.70;;;;;;5079101;28;20044;-86
2022/05/02 12:42:15;;;;;;;6.13;4.28;;;25.60;49.10;;;;;;5082785;28;20069;-86
2022/05/02 12:45:15;;;;;;;6.30;4.18;;;25.30;49.50;;;;;;5081895;28;20032;-85
2022/05/02 12:47:52;;;;;;;6.70;4.65;;;24.80;51.40;;;;;;5062506;28;20108;-86
2022/05/02 12:50:21;;;;;;;7.32;4.88;;;24.50;50.80;;;;;;5080082;28;20067;-85
2022/05/02 12:53:00;;;;;;;6.60;4.55;;;24.20;50.60;;;;;;5079275;28;20042;-87
2022/05/02 12:55:34;;;;;;;11.85;4.55;;;24.00;51.70;;;;;;5081918;28;20055;-85
2022/05/02 13:00:50;;;;;;;6.60;4.28;;;24.20;51.30;;;;;;5066252;28;20052;-86
2022/05/02 13:03:24;;;;;;;9.57;4.43;;;24.20;51.30;;;;;;5065981;28;20044;-86
2022/05/02 13:05:53;;;;;;;7.38;4.40;;;24.30;52.00;;;;;;5078527;28;20393;-86
2022/05/02 13:08:33;;;;;;;7.00;4.63;;;24.30;52.60;;;;;;5062329;28;20435;-85
2022/05/02 13:11:08;;;;;;;7.53;5.03;;;24.30;53.00;;;;;;5056573;28;20044;-81
2022/05/02 13:13:47;;;;;;;6.13;4.78;;;24.10;52.80;;;;;;5066428;28;20044;-81
2022/05/02 13:16:20;;;;;;;6.78;4.38;;;23.40;54.20;;;;;;5057494;28;20055;-81
2022/05/02 13:18:47;;;;;;;7.40;4.80;;;23.20;55.20;;;;;;5075634;28;20404;-81
2022/05/02 13:21:14;;;;;;;6.45;4.80;;;22.70;55.60;;;;;;5077025;28;20036;-81
2022/05/02 13:23:40;;;;;;;10.25;4.90;;;22.60;56.40;;;;;;5045042;28;20047;-81
2022/05/02 13:26:18;;;;;;;7.78;4.72;;;22.00;56.90;;;;;;5060036;28;21119;-81
2022/05/02 13:29:01;;;;;;;9.43;4.53;;;22.30;57.80;;;;;;5078403;28;20416;-81
2022/05/02 13:31:39;;;;;;;7.18;4.60;;;22.60;57.20;;;;;;5071031;28;20168;-80
2022/05/02 13:34:13;;;;;;;7.15;4.40;;;23.00;57.70;;;;;;5073056;28;20653;-81
2022/05/02 13:36:42;;;;;;;6.72;4.35;;;23.00;57.90;;;;;;5069592;28;20401;-81
2022/05/02 13:39:30;;;;;;;6.75;4.25;;;22.70;57.80;;;;;;5072748;28;20055;-80
2022/05/02 13:42:15;;;;;;;5.78;3.95;;;23.00;58.30;;;;;;5077789;28;20750;-86
2022/05/02 13:44:55;;;;;;;9.07;4.67;;;23.20;56.50;;;;;;5058033;28;20072;-86
2022/05/02 13:47:26;;;;;;;6.05;4.30;;;23.20;57.40;;;;;;5074240;28;20443;-85
2022/05/02 13:50:12;;;;;;;6.53;4.18;;;23.30;57.70;;;;;;5052900;28;20043;-85